sensor_id;sensor_type;location;lat;lon;timestamp;P1;durP1;ratioP1;P2;durP2;ratioP2
54805;SDS011;62866;55.776;37.496;2024-03-23T00:56:09;26.13;;;9.90;;
54805;SDS011;62866;55.776;37.496;2024-03-23T00:58:35;22.17;;;9.38;;
54805;SDS011;62866;55.776;37.496;2024-03-23T01:01:00;22.85;;;9.82;;
54805;SDS011;62866;55.776;37.496;2024-03-23T01:03:28;28.80;;;10.45;;
54805;SDS011;62866;55.776;37.496;2024-03-23T01:05:54;24.48;;;9.07;;
54805;SDS011;62866;55.776;37.496;2024-03-23T01:08:19;24.60;;;10.10;;
54805;SDS011;62866;55.776;37.496;2024-03-23T01:10:53;24.88;;;10.70;;
54805;SDS011;62866;55.776;37.496;2024-03-23T01:13:22;27.73;;;10.50;;
54805;SDS011;62866;55.776;37.496;2024-03-23T01:15:51;29.80;;;11.25;;
54805;SDS011;62866;55.776;37.496;2024-03-23T01:18:18;28.10;;;10.80;;
54805;SDS011;62866;55.776;37.496;2024-03-23T01:20:44;21.63;;;8.63;;
54805;SDS011;62866;55.776;37.496;2024-03-23T01:23:10;26.38;;;10.32;;
54805;SDS011;62866;55.776;37.496;2024-03-23T01:25:36;30.70;;;11.73;;
54805;SDS011;62866;55.776;37.496;2024-03-23T01:28:02;22.27;;;9.98;;
54805;SDS011;62866;55.776;37.496;2024-03-23T01:30:27;23.63;;;10.50;;
54805;SDS011;62866;55.776;37.496;2024-03-23T01:32:53;28.40;;;10.35;;
54805;SDS011;62866;55.776;37.496;2024-03-23T01:35:18;24.17;;;10.02;;
54805;SDS011;62866;55.776;37.496;2024-03-23T01:37:44;27.92;;;10.70;;
54805;SDS011;62866;55.776;37.496;2024-03-23T01:40:09;23.77;;;9.88;;
54805;SDS011;62866;55.776;37.496;2024-03-23T01:42:36;20.40;;;9.23;;
54805;SDS011;62866;55.776;37.496;2024-03-23T01:45:01;13.10;;;6.78;;
54805;SDS011;62866;55.776;37.496;2024-03-23T01:47:27;22.90;;;9.38;;
54805;SDS011;62866;55.776;37.496;2024-03-23T01:49:52;23.70;;;9.77;;
54805;SDS011;62866;55.776;37.496;2024-03-23T01:52:18;25.67;;;11.13;;
54805;SDS011;62866;55.776;37.496;2024-03-23T01:54:44;28.20;;;9.63;;
54805;SDS011;62866;55.776;37.496;2024-03-23T01:57:10;25.35;;;10.25;;
54805;SDS011;62866;55.776;37.496;2024-03-23T01:59:35;23.00;;;9.52;;
54805;SDS011;62866;55.776;37.496;2024-03-23T02:02:01;27.40;;;11.35;;
54805;SDS011;62866;55.776;37.496;2024-03-23T02:04:26;25.40;;;11.20;;
54805;SDS011;62866;55.776;37.496;2024-03-23T02:06:52;29.45;;;11.52;;
54805;SDS011;62866;55.776;37.496;2024-03-23T02:09:17;23.25;;;9.70;;
54805;SDS011;62866;55.776;37.496;2024-03-23T02:11:43;16.48;;;6.65;;
54805;SDS011;62866;55.776;37.496;2024-03-23T02:14:08;35.88;;;11.73;;
54805;SDS011;62866;55.776;37.496;2024-03-23T02:16:34;26.50;;;10.10;;
54805;SDS011;62866;55.776;37.496;2024-03-23T02:18:59;23.58;;;8.45;;
54805;SDS011;62866;55.776;37.496;2024-03-23T02:21:25;23.02;;;10.75;;
54805;SDS011;62866;55.776;37.496;2024-03-23T02:23:52;25.00;;;10.93;;
54805;SDS011;62866;55.776;37.496;2024-03-23T02:26:18;27.02;;;9.95;;
54805;SDS011;62866;55.776;37.496;2024-03-23T02:28:43;28.40;;;10.32;;
54805;SDS011;62866;55.776;37.496;2024-03-23T02:31:09;27.30;;;9.20;;
54805;SDS011;62866;55.776;37.496;2024-03-23T02:33:34;26.27;;;10.73;;
54805;SDS011;62866;55.776;37.496;2024-03-23T02:36:03;25.83;;;9.90;;
54805;SDS011;62866;55.776;37.496;2024-03-23T02:38:29;16.60;;;5.25;;
54805;SDS011;62866;55.776;37.496;2024-03-23T02:40:54;16.20;;;6.95;;
54805;SDS011;62866;55.776;37.496;2024-03-23T02:43:20;29.33;;;12.13;;
54805;SDS011;62866;55.776;37.496;2024-03-23T02:45:45;27.48;;;11.00;;
54805;SDS011;62866;55.776;37.496;2024-03-23T02:48:11;25.55;;;10.35;;
54805;SDS011;62866;55.776;37.496;2024-03-23T02:50:36;12.45;;;6.10;;
54805;SDS011;62866;55.776;37.496;2024-03-23T02:53:02;28.67;;;11.27;;
54805;SDS011;62866;55.776;37.496;2024-03-23T02:55:27;23.70;;;10.40;;
54805;SDS011;62866;55.776;37.496;2024-03-23T02:57:53;28.02;;;11.18;;
54805;SDS011;62866;55.776;37.496;2024-03-23T03:00:18;30.98;;;11.77;;
54805;SDS011;62866;55.776;37.496;2024-03-23T03:02:44;26.77;;;10.70;;
54805;SDS011;62866;55.776;37.496;2024-03-23T03:05:09;12.85;;;5.35;;
54805;SDS011;62866;55.776;37.496;2024-03-23T03:07:36;24.80;;;10.15;;
54805;SDS011;62866;55.776;37.496;2024-03-23T03:10:04;33.60;;;11.85;;
54805;SDS011;62866;55.776;37.496;2024-03-23T03:12:31;24.35;;;9.45;;
54805;SDS011;62866;55.776;37.496;2024-03-23T03:14:57;26.23;;;11.05;;
54805;SDS011;62866;55.776;37.496;2024-03-23T03:17:22;15.55;;;6.38;;
54805;SDS011;62866;55.776;37.496;2024-03-23T03:19:48;21.17;;;10.23;;
54805;SDS011;62866;55.776;37.496;2024-03-23T03:22:14;24.33;;;9.82;;
54805;SDS011;62866;55.776;37.496;2024-03-23T03:24:39;26.55;;;9.70;;
54805;SDS011;62866;55.776;37.496;2024-03-23T03:27:04;29.42;;;11.05;;
54805;SDS011;62866;55.776;37.496;2024-03-23T03:29:31;26.63;;;8.48;;
54805;SDS011;62866;55.776;37.496;2024-03-23T03:32:00;33.40;;;11.80;;
54805;SDS011;62866;55.776;37.496;2024-03-23T03:34:27;25.30;;;10.27;;
54805;SDS011;62866;55.776;37.496;2024-03-23T03:36:52;29.42;;;10.55;;
54805;SDS011;62866;55.776;37.496;2024-03-23T03:39:18;25.10;;;11.15;;
54805;SDS011;62866;55.776;37.496;2024-03-23T03:41:43;26.08;;;9.98;;
54805;SDS011;62866;55.776;37.496;2024-03-23T03:44:08;29.48;;;12.13;;
54805;SDS011;62866;55.776;37.496;2024-03-23T03:46:34;24.85;;;10.45;;
54805;SDS011;62866;55.776;37.496;2024-03-23T03:48:59;25.95;;;11.15;;
54805;SDS011;62866;55.776;37.496;2024-03-23T03:51:25;26.10;;;10.85;;
54805;SDS011;62866;55.776;37.496;2024-03-23T03:53:50;25.80;;;11.25;;
54805;SDS011;62866;55.776;37.496;2024-03-23T03:56:16;30.00;;;12.45;;
54805;SDS011;62866;55.776;37.496;2024-03-23T03:58:41;26.25;;;10.45;;
54805;SDS011;62866;55.776;37.496;2024-03-23T04:01:07;30.52;;;10.90;;
54805;SDS011;62866;55.776;37.496;2024-03-23T04:03:32;18.40;;;8.65;;
54805;SDS011;62866;55.776;37.496;2024-03-23T04:05:57;30.60;;;10.93;;
54805;SDS011;62866;55.776;37.496;2024-03-23T04:08:23;30.85;;;11.55;;
54805;SDS011;62866;55.776;37.496;2024-03-23T04:10:49;26.73;;;11.90;;
54805;SDS011;62866;55.776;37.496;2024-03-23T04:13:14;21.90;;;8.90;;
54805;SDS011;62866;55.776;37.496;2024-03-23T04:15:41;23.92;;;9.77;;
54805;SDS011;62866;55.776;37.496;2024-03-23T04:18:06;23.90;;;10.45;;
54805;SDS011;62866;55.776;37.496;2024-03-23T04:20:32;20.08;;;8.73;;
54805;SDS011;62866;55.776;37.496;2024-03-23T04:23:01;12.80;;;6.00;;
54805;SDS011;62866;55.776;37.496;2024-03-23T04:25:26;27.52;;;9.88;;
54805;SDS011;62866;55.776;37.496;2024-03-23T04:27:52;25.13;;;10.02;;
54805;SDS011;62866;55.776;37.496;2024-03-23T04:30:17;23.33;;;9.90;;
54805;SDS011;62866;55.776;37.496;2024-03-23T04:32:43;23.42;;;9.90;;
54805;SDS011;62866;55.776;37.496;2024-03-23T04:35:09;26.23;;;9.30;;
54805;SDS011;62866;55.776;37.496;2024-03-23T04:37:38;23.83;;;10.15;;
54805;SDS011;62866;55.776;37.496;2024-03-23T04:40:07;23.20;;;9.75;;
54805;SDS011;62866;55.776;37.496;2024-03-23T04:42:33;23.75;;;9.63;;
54805;SDS011;62866;55.776;37.496;2024-03-23T04:44:58;28.95;;;12.02;;
54805;SDS011;62866;55.776;37.496;2024-03-23T04:47:24;24.30;;;10.70;;
54805;SDS011;62866;55.776;37.496;2024-03-23T04:49:50;22.02;;;9.75;;
54805;SDS011;62866;55.776;37.496;2024-03-23T04:52:18;22.23;;;9.30;;
54805;SDS011;62866;55.776;37.496;2024-03-23T04:54:44;23.05;;;10.10;;
54805;SDS011;62866;55.776;37.496;2024-03-23T04:57:10;22.20;;;9.30;;
54805;SDS011;62866;55.776;37.496;2024-03-23T04:59:36;23.70;;;9.15;;
54805;SDS011;62866;55.776;37.496;2024-03-23T05:02:01;21.42;;;8.35;;
54805;SDS011;62866;55.776;37.496;2024-03-23T05:04:27;22.63;;;10.70;;
54805;SDS011;62866;55.776;37.496;2024-03-23T05:06:53;21.70;;;9.50;;
54805;SDS011;62866;55.776;37.496;2024-03-23T05:09:19;19.10;;;9.02;;
54805;SDS011;62866;55.776;37.496;2024-03-23T05:11:45;18.77;;;8.20;;
54805;SDS011;62866;55.776;37.496;2024-03-23T05:14:14;25.77;;;10.77;;
54805;SDS011;62866;55.776;37.496;2024-03-23T05:16:40;19.80;;;9.60;;
54805;SDS011;62866;55.776;37.496;2024-03-23T05:19:05;17.75;;;6.63;;
54805;SDS011;62866;55.776;37.496;2024-03-23T05:21:31;19.15;;;9.10;;
54805;SDS011;62866;55.776;37.496;2024-03-23T05:23:56;22.38;;;9.45;;
54805;SDS011;62866;55.776;37.496;2024-03-23T05:26:22;20.70;;;8.63;;
54805;SDS011;62866;55.776;37.496;2024-03-23T05:28:48;22.05;;;9.27;;
54805;SDS011;62866;55.776;37.496;2024-03-23T05:31:22;16.15;;;6.65;;
54805;SDS011;62866;55.776;37.496;2024-03-23T05:33:50;20.10;;;8.70;;
54805;SDS011;62866;55.776;37.496;2024-03-23T05:36:16;20.73;;;9.75;;
54805;SDS011;62866;55.776;37.496;2024-03-23T05:38:42;19.33;;;8.55;;
54805;SDS011;62866;55.776;37.496;2024-03-23T05:41:08;19.00;;;8.82;;
54805;SDS011;62866;55.776;37.496;2024-03-23T05:43:33;12.73;;;5.28;;
54805;SDS011;62866;55.776;37.496;2024-03-23T05:45:59;27.60;;;10.93;;
54805;SDS011;62866;55.776;37.496;2024-03-23T05:48:26;17.33;;;8.38;;
54805;SDS011;62866;55.776;37.496;2024-03-23T05:50:53;15.70;;;6.90;;
54805;SDS011;62866;55.776;37.496;2024-03-23T05:53:19;20.17;;;8.65;;
54805;SDS011;62866;55.776;37.496;2024-03-23T05:55:45;18.48;;;8.45;;
54805;SDS011;62866;55.776;37.496;2024-03-23T05:58:14;18.77;;;7.82;;
54805;SDS011;62866;55.776;37.496;2024-03-23T06:00:46;17.83;;;7.55;;
54805;SDS011;62866;55.776;37.496;2024-03-23T06:03:11;14.55;;;6.90;;
54805;SDS011;62866;55.776;37.496;2024-03-23T06:05:37;22.13;;;8.40;;
54805;SDS011;62866;55.776;37.496;2024-03-23T06:08:03;17.88;;;8.05;;
54805;SDS011;62866;55.776;37.496;2024-03-23T06:10:29;17.80;;;8.80;;
54805;SDS011;62866;55.776;37.496;2024-03-23T06:12:56;18.17;;;7.38;;
54805;SDS011;62866;55.776;37.496;2024-03-23T06:15:22;23.95;;;8.48;;
54805;SDS011;62866;55.776;37.496;2024-03-23T06:17:48;17.70;;;7.82;;
54805;SDS011;62866;55.776;37.496;2024-03-23T06:20:14;18.70;;;8.10;;
54805;SDS011;62866;55.776;37.496;2024-03-23T06:22:39;17.33;;;7.07;;
54805;SDS011;62866;55.776;37.496;2024-03-23T06:25:05;15.57;;;7.22;;
54805;SDS011;62866;55.776;37.496;2024-03-23T06:27:31;16.10;;;6.78;;
54805;SDS011;62866;55.776;37.496;2024-03-23T06:30:00;16.50;;;7.75;;
54805;SDS011;62866;55.776;37.496;2024-03-23T06:32:27;7.95;;;4.05;;
54805;SDS011;62866;55.776;37.496;2024-03-23T06:34:53;12.52;;;6.25;;
54805;SDS011;62866;55.776;37.496;2024-03-23T06:37:19;17.63;;;7.90;;
54805;SDS011;62866;55.776;37.496;2024-03-23T06:39:45;14.25;;;6.97;;
54805;SDS011;62866;55.776;37.496;2024-03-23T06:42:11;12.05;;;5.07;;
54805;SDS011;62866;55.776;37.496;2024-03-23T06:44:36;17.05;;;7.78;;
54805;SDS011;62866;55.776;37.496;2024-03-23T06:47:02;10.27;;;5.55;;
54805;SDS011;62866;55.776;37.496;2024-03-23T06:49:27;12.98;;;5.65;;
54805;SDS011;62866;55.776;37.496;2024-03-23T06:51:53;15.80;;;7.20;;
54805;SDS011;62866;55.776;37.496;2024-03-23T06:54:19;15.30;;;6.80;;
54805;SDS011;62866;55.776;37.496;2024-03-23T06:56:45;14.20;;;6.30;;
54805;SDS011;62866;55.776;37.496;2024-03-23T06:59:10;13.60;;;6.65;;
54805;SDS011;62866;55.776;37.496;2024-03-23T07:01:36;13.18;;;5.40;;
54805;SDS011;62866;55.776;37.496;2024-03-23T07:04:01;12.77;;;6.43;;
54805;SDS011;62866;55.776;37.496;2024-03-23T07:06:27;8.90;;;4.53;;
54805;SDS011;62866;55.776;37.496;2024-03-23T07:08:53;9.32;;;5.88;;
54805;SDS011;62866;55.776;37.496;2024-03-23T07:11:19;13.18;;;6.60;;
54805;SDS011;62866;55.776;37.496;2024-03-23T07:13:51;11.43;;;6.05;;
54805;SDS011;62866;55.776;37.496;2024-03-23T07:16:17;11.23;;;5.78;;
54805;SDS011;62866;55.776;37.496;2024-03-23T07:18:43;11.98;;;4.78;;
54805;SDS011;62866;55.776;37.496;2024-03-23T07:21:09;10.63;;;5.57;;
54805;SDS011;62866;55.776;37.496;2024-03-23T07:23:34;11.27;;;5.47;;
54805;SDS011;62866;55.776;37.496;2024-03-23T07:26:00;13.73;;;6.45;;
54805;SDS011;62866;55.776;37.496;2024-03-23T07:28:27;11.00;;;5.72;;
54805;SDS011;62866;55.776;37.496;2024-03-23T07:31:04;9.67;;;4.17;;
54805;SDS011;62866;55.776;37.496;2024-03-23T07:33:30;9.48;;;4.95;;
54805;SDS011;62866;55.776;37.496;2024-03-23T07:35:56;11.55;;;6.28;;
54805;SDS011;62866;55.776;37.496;2024-03-23T07:38:23;12.15;;;6.32;;
54805;SDS011;62866;55.776;37.496;2024-03-23T07:40:48;12.00;;;5.55;;
54805;SDS011;62866;55.776;37.496;2024-03-23T07:43:19;14.35;;;5.70;;
54805;SDS011;62866;55.776;37.496;2024-03-23T07:45:50;10.07;;;5.47;;
54805;SDS011;62866;55.776;37.496;2024-03-23T07:48:16;11.32;;;5.40;;
54805;SDS011;62866;55.776;37.496;2024-03-23T07:50:42;9.15;;;4.30;;
54805;SDS011;62866;55.776;37.496;2024-03-23T07:53:08;12.27;;;6.32;;
54805;SDS011;62866;55.776;37.496;2024-03-23T07:55:33;10.48;;;5.57;;
54805;SDS011;62866;55.776;37.496;2024-03-23T07:57:58;9.40;;;4.90;;
54805;SDS011;62866;55.776;37.496;2024-03-23T08:00:24;10.73;;;4.55;;
54805;SDS011;62866;55.776;37.496;2024-03-23T08:02:51;6.65;;;3.33;;
54805;SDS011;62866;55.776;37.496;2024-03-23T08:05:16;9.25;;;4.38;;
54805;SDS011;62866;55.776;37.496;2024-03-23T08:07:42;11.80;;;5.35;;
54805;SDS011;62866;55.776;37.496;2024-03-23T08:10:07;12.20;;;5.97;;
54805;SDS011;62866;55.776;37.496;2024-03-23T08:12:33;11.55;;;5.88;;
54805;SDS011;62866;55.776;37.496;2024-03-23T08:14:58;5.78;;;2.38;;
54805;SDS011;62866;55.776;37.496;2024-03-23T08:17:24;13.07;;;5.93;;
54805;SDS011;62866;55.776;37.496;2024-03-23T08:19:50;11.90;;;5.78;;
54805;SDS011;62866;55.776;37.496;2024-03-23T08:22:17;12.88;;;6.18;;
54805;SDS011;62866;55.776;37.496;2024-03-23T08:24:43;12.05;;;5.82;;
54805;SDS011;62866;55.776;37.496;2024-03-23T08:27:08;11.40;;;5.78;;
54805;SDS011;62866;55.776;37.496;2024-03-23T08:29:33;8.70;;;4.80;;
54805;SDS011;62866;55.776;37.496;2024-03-23T08:31:59;15.60;;;6.20;;
54805;SDS011;62866;55.776;37.496;2024-03-23T08:34:25;15.27;;;7.15;;
54805;SDS011;62866;55.776;37.496;2024-03-23T08:36:51;11.75;;;6.03;;
54805;SDS011;62866;55.776;37.496;2024-03-23T08:39:17;10.35;;;5.32;;
54805;SDS011;62866;55.776;37.496;2024-03-23T08:41:42;12.35;;;5.75;;
54805;SDS011;62866;55.776;37.496;2024-03-23T08:44:11;11.27;;;5.65;;
54805;SDS011;62866;55.776;37.496;2024-03-23T08:46:36;9.45;;;4.88;;
54805;SDS011;62866;55.776;37.496;2024-03-23T08:49:02;10.57;;;5.75;;
54805;SDS011;62866;55.776;37.496;2024-03-23T08:51:27;7.15;;;4.05;;
54805;SDS011;62866;55.776;37.496;2024-03-23T08:53:52;10.25;;;6.22;;
54805;SDS011;62866;55.776;37.496;2024-03-23T08:56:18;11.90;;;6.00;;
54805;SDS011;62866;55.776;37.496;2024-03-23T08:58:44;11.43;;;6.20;;
54805;SDS011;62866;55.776;37.496;2024-03-23T09:01:11;11.30;;;5.00;;
54805;SDS011;62866;55.776;37.496;2024-03-23T09:03:40;8.98;;;5.07;;
54805;SDS011;62866;55.776;37.496;2024-03-23T09:06:07;8.25;;;4.32;;
54805;SDS011;62866;55.776;37.496;2024-03-23T09:08:33;11.95;;;5.80;;
54805;SDS011;62866;55.776;37.496;2024-03-23T09:11:04;10.50;;;4.68;;
54805;SDS011;62866;55.776;37.496;2024-03-23T09:13:36;9.00;;;4.93;;
54805;SDS011;62866;55.776;37.496;2024-03-23T09:16:12;10.13;;;4.97;;
54805;SDS011;62866;55.776;37.496;2024-03-23T09:18:43;7.72;;;3.45;;
54805;SDS011;62866;55.776;37.496;2024-03-23T09:21:12;7.15;;;2.85;;
54805;SDS011;62866;55.776;37.496;2024-03-23T09:23:39;10.93;;;5.22;;
54805;SDS011;62866;55.776;37.496;2024-03-23T09:26:05;9.15;;;4.47;;
54805;SDS011;62866;55.776;37.496;2024-03-23T09:28:34;12.13;;;6.38;;
54805;SDS011;62866;55.776;37.496;2024-03-23T09:31:06;8.88;;;4.70;;
54805;SDS011;62866;55.776;37.496;2024-03-23T09:33:32;13.75;;;5.70;;
54805;SDS011;62866;55.776;37.496;2024-03-23T09:36:02;9.65;;;5.38;;
54805;SDS011;62866;55.776;37.496;2024-03-23T09:38:28;12.57;;;6.03;;
54805;SDS011;62866;55.776;37.496;2024-03-23T09:40:54;9.45;;;4.45;;
54805;SDS011;62866;55.776;37.496;2024-03-23T09:43:19;10.25;;;6.43;;
54805;SDS011;62866;55.776;37.496;2024-03-23T09:45:45;13.40;;;5.90;;
54805;SDS011;62866;55.776;37.496;2024-03-23T09:48:14;12.23;;;5.75;;
54805;SDS011;62866;55.776;37.496;2024-03-23T09:50:41;12.27;;;6.15;;
54805;SDS011;62866;55.776;37.496;2024-03-23T09:53:07;10.77;;;5.78;;
54805;SDS011;62866;55.776;37.496;2024-03-23T09:55:36;10.13;;;6.00;;
54805;SDS011;62866;55.776;37.496;2024-03-23T09:58:03;11.15;;;5.18;;
54805;SDS011;62866;55.776;37.496;2024-03-23T10:00:30;7.97;;;3.90;;
54805;SDS011;62866;55.776;37.496;2024-03-23T10:03:01;9.45;;;5.03;;
54805;SDS011;62866;55.776;37.496;2024-03-23T10:05:27;11.27;;;5.82;;
54805;SDS011;62866;55.776;37.496;2024-03-23T10:07:54;10.88;;;5.93;;
54805;SDS011;62866;55.776;37.496;2024-03-23T10:10:20;11.63;;;6.10;;
54805;SDS011;62866;55.776;37.496;2024-03-23T10:12:49;9.95;;;5.45;;
54805;SDS011;62866;55.776;37.496;2024-03-23T10:15:22;9.98;;;5.70;;
54805;SDS011;62866;55.776;37.496;2024-03-23T10:17:52;10.85;;;5.78;;
54805;SDS011;62866;55.776;37.496;2024-03-23T10:20:20;10.48;;;5.72;;
54805;SDS011;62866;55.776;37.496;2024-03-23T10:22:50;8.88;;;5.45;;
54805;SDS011;62866;55.776;37.496;2024-03-23T10:25:24;11.77;;;5.43;;
54805;SDS011;62866;55.776;37.496;2024-03-23T10:27:59;12.27;;;5.93;;
54805;SDS011;62866;55.776;37.496;2024-03-23T10:30:26;9.30;;;4.70;;
54805;SDS011;62866;55.776;37.496;2024-03-23T10:33:06;9.93;;;5.45;;
54805;SDS011;62866;55.776;37.496;2024-03-23T10:35:38;9.40;;;4.72;;
54805;SDS011;62866;55.776;37.496;2024-03-23T10:38:04;9.60;;;4.68;;
54805;SDS011;62866;55.776;37.496;2024-03-23T10:40:33;7.50;;;4.43;;
54805;SDS011;62866;55.776;37.496;2024-03-23T10:43:00;9.45;;;4.80;;
54805;SDS011;62866;55.776;37.496;2024-03-23T10:45:27;11.13;;;5.85;;
54805;SDS011;62866;55.776;37.496;2024-03-23T10:47:55;11.13;;;5.78;;
54805;SDS011;62866;55.776;37.496;2024-03-23T10:50:21;10.73;;;5.13;;
54805;SDS011;62866;55.776;37.496;2024-03-23T10:52:50;9.48;;;4.90;;
54805;SDS011;62866;55.776;37.496;2024-03-23T10:55:24;10.85;;;6.00;;
54805;SDS011;62866;55.776;37.496;2024-03-23T10:57:51;10.95;;;4.50;;
54805;SDS011;62866;55.776;37.496;2024-03-23T11:00:21;10.68;;;5.95;;
54805;SDS011;62866;55.776;37.496;2024-03-23T11:02:51;8.77;;;4.65;;
54805;SDS011;62866;55.776;37.496;2024-03-23T11:07:51;14.45;;;6.30;;
54805;SDS011;62866;55.776;37.496;2024-03-23T11:13:21;11.00;;;5.65;;
54805;SDS011;62866;55.776;37.496;2024-03-23T11:15:47;11.88;;;5.95;;
54805;SDS011;62866;55.776;37.496;2024-03-23T11:18:13;13.40;;;6.07;;
54805;SDS011;62866;55.776;37.496;2024-03-23T11:20:46;10.32;;;5.68;;
54805;SDS011;62866;55.776;37.496;2024-03-23T11:23:32;7.63;;;3.92;;
54805;SDS011;62866;55.776;37.496;2024-03-23T11:26:01;14.27;;;6.47;;
54805;SDS011;62866;55.776;37.496;2024-03-23T11:28:26;11.70;;;6.10;;
54805;SDS011;62866;55.776;37.496;2024-03-23T11:30:52;10.68;;;5.30;;
54805;SDS011;62866;55.776;37.496;2024-03-23T11:33:17;12.23;;;6.00;;
54805;SDS011;62866;55.776;37.496;2024-03-23T11:35:45;12.02;;;6.30;;
54805;SDS011;62866;55.776;37.496;2024-03-23T11:38:15;12.70;;;6.03;;
54805;SDS011;62866;55.776;37.496;2024-03-23T11:40:46;11.65;;;5.50;;
54805;SDS011;62866;55.776;37.496;2024-03-23T11:43:14;8.02;;;4.20;;
54805;SDS011;62866;55.776;37.496;2024-03-23T11:48:16;18.55;;;8.45;;
54805;SDS011;62866;55.776;37.496;2024-03-23T11:50:43;13.15;;;5.85;;
54805;SDS011;62866;55.776;37.496;2024-03-23T11:53:13;13.65;;;6.53;;
54805;SDS011;62866;55.776;37.496;2024-03-23T11:58:11;14.95;;;6.07;;
54805;SDS011;62866;55.776;37.496;2024-03-23T12:00:40;12.35;;;6.03;;
54805;SDS011;62866;55.776;37.496;2024-03-23T12:03:06;14.63;;;6.75;;
54805;SDS011;62866;55.776;37.496;2024-03-23T12:05:33;11.65;;;6.32;;
54805;SDS011;62866;55.776;37.496;2024-03-23T12:11:07;13.10;;;6.13;;
54805;SDS011;62866;55.776;37.496;2024-03-23T12:13:37;11.40;;;6.22;;
54805;SDS011;62866;55.776;37.496;2024-03-23T12:18:39;9.80;;;4.68;;
54805;SDS011;62866;55.776;37.496;2024-03-23T12:21:07;12.90;;;5.70;;
54805;SDS011;62866;55.776;37.496;2024-03-23T12:23:33;9.52;;;4.93;;
54805;SDS011;62866;55.776;37.496;2024-03-23T12:25:59;10.27;;;4.97;;
54805;SDS011;62866;55.776;37.496;2024-03-23T12:28:25;12.10;;;6.35;;
54805;SDS011;62866;55.776;37.496;2024-03-23T12:30:51;10.15;;;4.85;;
54805;SDS011;62866;55.776;37.496;2024-03-23T12:33:20;13.18;;;6.32;;
54805;SDS011;62866;55.776;37.496;2024-03-23T12:35:46;11.80;;;5.68;;
54805;SDS011;62866;55.776;37.496;2024-03-23T12:38:12;15.85;;;6.68;;
54805;SDS011;62866;55.776;37.496;2024-03-23T12:40:38;14.52;;;7.00;;
54805;SDS011;62866;55.776;37.496;2024-03-23T12:43:03;11.10;;;4.75;;
54805;SDS011;62866;55.776;37.496;2024-03-23T12:45:29;10.13;;;4.60;;
54805;SDS011;62866;55.776;37.496;2024-03-23T12:47:54;9.77;;;5.43;;
54805;SDS011;62866;55.776;37.496;2024-03-23T12:50:20;11.57;;;5.90;;
54805;SDS011;62866;55.776;37.496;2024-03-23T12:52:46;10.00;;;5.45;;
54805;SDS011;62866;55.776;37.496;2024-03-23T12:55:12;11.95;;;6.00;;
54805;SDS011;62866;55.776;37.496;2024-03-23T12:57:38;14.52;;;7.50;;
54805;SDS011;62866;55.776;37.496;2024-03-23T13:00:05;11.85;;;5.60;;
54805;SDS011;62866;55.776;37.496;2024-03-23T13:02:31;13.73;;;6.10;;
54805;SDS011;62866;55.776;37.496;2024-03-23T13:04:59;7.53;;;3.92;;
54805;SDS011;62866;55.776;37.496;2024-03-23T13:07:25;16.50;;;6.60;;
54805;SDS011;62866;55.776;37.496;2024-03-23T13:09:51;13.60;;;6.53;;
54805;SDS011;62866;55.776;37.496;2024-03-23T13:12:21;15.63;;;6.55;;
54805;SDS011;62866;55.776;37.496;2024-03-23T13:14:47;16.05;;;6.63;;
54805;SDS011;62866;55.776;37.496;2024-03-23T13:17:13;11.07;;;4.90;;
54805;SDS011;62866;55.776;37.496;2024-03-23T13:19:41;15.32;;;7.32;;
54805;SDS011;62866;55.776;37.496;2024-03-23T13:22:07;11.55;;;5.57;;
54805;SDS011;62866;55.776;37.496;2024-03-23T13:24:36;14.45;;;7.03;;
54805;SDS011;62866;55.776;37.496;2024-03-23T13:27:05;11.02;;;5.40;;
54805;SDS011;62866;55.776;37.496;2024-03-23T13:29:32;12.60;;;5.95;;
54805;SDS011;62866;55.776;37.496;2024-03-23T13:32:00;13.20;;;5.97;;
54805;SDS011;62866;55.776;37.496;2024-03-23T13:34:25;11.05;;;5.50;;
54805;SDS011;62866;55.776;37.496;2024-03-23T13:36:51;15.27;;;6.88;;
54805;SDS011;62866;55.776;37.496;2024-03-23T13:39:16;14.15;;;6.55;;
54805;SDS011;62866;55.776;37.496;2024-03-23T13:41:45;10.25;;;4.80;;
54805;SDS011;62866;55.776;37.496;2024-03-23T13:44:11;13.02;;;5.25;;
54805;SDS011;62866;55.776;37.496;2024-03-23T13:46:39;10.27;;;5.10;;
54805;SDS011;62866;55.776;37.496;2024-03-23T13:49:05;11.02;;;6.20;;
54805;SDS011;62866;55.776;37.496;2024-03-23T13:51:31;13.70;;;6.15;;
54805;SDS011;62866;55.776;37.496;2024-03-23T13:54:00;10.63;;;5.45;;
54805;SDS011;62866;55.776;37.496;2024-03-23T13:56:26;10.27;;;5.57;;
54805;SDS011;62866;55.776;37.496;2024-03-23T13:58:56;11.77;;;6.20;;
54805;SDS011;62866;55.776;37.496;2024-03-23T14:01:21;13.40;;;5.45;;
54805;SDS011;62866;55.776;37.496;2024-03-23T14:03:47;5.70;;;3.03;;
54805;SDS011;62866;55.776;37.496;2024-03-23T14:06:12;12.77;;;5.10;;
54805;SDS011;62866;55.776;37.496;2024-03-23T14:08:41;11.55;;;5.40;;
54805;SDS011;62866;55.776;37.496;2024-03-23T14:11:07;10.15;;;5.32;;
54805;SDS011;62866;55.776;37.496;2024-03-23T14:13:36;9.48;;;4.80;;
54805;SDS011;62866;55.776;37.496;2024-03-23T14:16:02;11.05;;;5.65;;
54805;SDS011;62866;55.776;37.496;2024-03-23T14:18:28;7.47;;;4.25;;
54805;SDS011;62866;55.776;37.496;2024-03-23T14:21:00;7.85;;;4.50;;
54805;SDS011;62866;55.776;37.496;2024-03-23T14:23:26;8.43;;;4.50;;
54805;SDS011;62866;55.776;37.496;2024-03-23T14:25:54;8.20;;;4.93;;
54805;SDS011;62866;55.776;37.496;2024-03-23T14:28:21;11.43;;;5.10;;
54805;SDS011;62866;55.776;37.496;2024-03-23T14:30:47;12.30;;;5.30;;
54805;SDS011;62866;55.776;37.496;2024-03-23T14:33:17;10.93;;;5.63;;
54805;SDS011;62866;55.776;37.496;2024-03-23T14:35:43;9.65;;;4.70;;
54805;SDS011;62866;55.776;37.496;2024-03-23T14:38:16;8.83;;;5.30;;
54805;SDS011;62866;55.776;37.496;2024-03-23T14:40:42;9.68;;;5.10;;
54805;SDS011;62866;55.776;37.496;2024-03-23T14:43:07;8.82;;;5.07;;
54805;SDS011;62866;55.776;37.496;2024-03-23T14:45:33;9.45;;;4.82;;
54805;SDS011;62866;55.776;37.496;2024-03-23T14:47:59;9.60;;;5.28;;
54805;SDS011;62866;55.776;37.496;2024-03-23T14:50:25;9.60;;;5.40;;
54805;SDS011;62866;55.776;37.496;2024-03-23T14:52:51;9.65;;;5.05;;
54805;SDS011;62866;55.776;37.496;2024-03-23T14:55:19;9.70;;;4.35;;
54805;SDS011;62866;55.776;37.496;2024-03-23T14:57:44;11.23;;;4.65;;
54805;SDS011;62866;55.776;37.496;2024-03-23T15:00:10;13.80;;;5.65;;
54805;SDS011;62866;55.776;37.496;2024-03-23T15:02:37;7.43;;;3.72;;
54805;SDS011;62866;55.776;37.496;2024-03-23T15:05:03;13.63;;;4.88;;
54805;SDS011;62866;55.776;37.496;2024-03-23T15:07:30;9.43;;;4.97;;
54805;SDS011;62866;55.776;37.496;2024-03-23T15:09:56;12.15;;;5.03;;
54805;SDS011;62866;55.776;37.496;2024-03-23T15:12:21;9.77;;;4.63;;
54805;SDS011;62866;55.776;37.496;2024-03-23T15:14:47;9.85;;;4.85;;
54805;SDS011;62866;55.776;37.496;2024-03-23T15:17:13;15.52;;;6.55;;
54805;SDS011;62866;55.776;37.496;2024-03-23T15:19:38;11.07;;;5.55;;
54805;SDS011;62866;55.776;37.496;2024-03-23T15:22:08;7.30;;;4.72;;
54805;SDS011;62866;55.776;37.496;2024-03-23T15:24:34;6.53;;;3.60;;
54805;SDS011;62866;55.776;37.496;2024-03-23T15:27:01;8.98;;;5.25;;
54805;SDS011;62866;55.776;37.496;2024-03-23T15:29:27;7.63;;;4.38;;